Time;durP1;ratioP1;P1;durP2;ratioP2;P2;SDS_P1;SDS_P2;PMS_P1;PMS_P2;Temp;Humidity;BMP_temperature;BMP_pressure;BME280_temperature;BME280_humidity;BME280_pressure;Samples;Min_cycle;Max_cycle;Signal;HPM_P1;HPM_P2
2021/03/21 00:01:19;;;;;;;;;;;;;;;4.56;100.00;101925.31;5088873;28;19916;-84
2021/03/21 00:03:44;;;;;;;;;;;;;;;4.55;100.00;101910.31;5070890;28;19926;-82
2021/03/21 00:06:09;;;;;;;;;;;;;;;4.52;100.00;101907.88;5073287;28;19916;-86
2021/03/21 00:08:34;;;;;;;;;;;;;;;4.53;100.00;101901.59;5082901;28;19926;-84
2021/03/21 00:11:02;;;;;;;;;;;;;;;4.52;100.00;101891.91;5071507;28;20251;-86
2021/03/21 00:13:28;;;;;;;;;;;;;;;4.51;100.00;101890.19;5081956;28;19989;-87
2021/03/21 00:15:54;;;;;;;;;;;;;;;4.49;100.00;101885.00;5084269;28;19928;-82
2021/03/21 00:18:21;;;;;;;;;;;;;;;4.49;100.00;101884.13;5071914;28;20292;-84
2021/03/21 00:20:46;;;;;;;;;;;;;;;4.50;100.00;101876.03;5069871;28;19916;-86
2021/03/21 00:23:12;;;;;;;;;;;;;;;4.50;100.00;101869.88;5083574;28;19920;-85
2021/03/21 00:25:37;;;;;;;;;;;;;;;4.49;100.00;101869.03;5071280;28;19927;-86
2021/03/21 00:28:04;;;;;;;;;;;;;;;4.48;100.00;101855.84;5082034;28;19935;-82
2021/03/21 00:30:37;;;;;;;;;;;;;;;4.48;100.00;101861.16;5071656;28;19917;-83
2021/03/21 00:33:05;;;;;;;;;;;;;;;4.48;100.00;101858.50;5066722;28;19924;-83
2021/03/21 00:35:30;;;;;;;;;;;;;;;4.47;100.00;101867.44;5089646;28;19947;-84
2021/03/21 00:37:56;;;;;;;;;;;;;;;4.49;100.00;101862.88;5063456;28;20385;-85
2021/03/21 00:40:22;;;;;;;;;;;;;;;4.50;100.00;101862.75;5077434;28;19928;-86
2021/03/21 00:42:47;;;;;;;;;;;;;;;4.48;100.00;101858.50;5071555;28;19920;-83
2021/03/21 00:45:13;;;;;;;;;;;;;;;4.46;100.00;101850.63;5070434;28;20007;-85
2021/03/21 00:47:39;;;;;;;;;;;;;;;4.47;100.00;101856.78;5081862;28;19924;-86
2021/03/21 00:50:07;;;;;;;;;;;;;;;4.47;100.00;101848.81;5082869;28;20391;-87
2021/03/21 00:52:32;;;;;;;;;;;;;;;4.46;100.00;101849.75;5063917;28;19931;-85
2021/03/21 00:54:57;;;;;;;;;;;;;;;4.46;100.00;101847.09;5080000;28;20352;-84
2021/03/21 00:57:22;;;;;;;;;;;;;;;4.45;100.00;101846.25;5066670;28;20364;-86
2021/03/21 00:59:48;;;;;;;;;;;;;;;4.48;100.00;101845.19;5076916;28;19925;-82
2021/03/21 01:02:13;;;;;;;;;;;;;;;4.47;100.00;101843.50;5070632;28;19920;-83
2021/03/21 01:04:38;;;;;;;;;;;;;;;4.48;100.00;101850.50;5089553;28;20356;-82
2021/03/21 01:07:04;;;;;;;;;;;;;;;4.47;100.00;101825.75;5071270;28;19923;-85
2021/03/21 01:09:29;;;;;;;;;;;;;;;4.48;100.00;101831.91;5086610;28;20015;-83
2021/03/21 01:11:54;;;;;;;;;;;;;;;4.49;100.00;101834.47;5077745;28;20250;-85
2021/03/21 01:14:19;;;;;;;;;;;;;;;4.48;100.00;101819.47;5070181;28;19920;-84
2021/03/21 01:16:45;;;;;;;;;;;;;;;4.47;100.00;101812.44;5068518;28;19931;-85
2021/03/21 01:19:12;;;;;;;;;;;;;;;4.48;100.00;101807.97;5068247;28;19920;-86
2021/03/21 01:21:43;;;;;;;;;;;;;;;4.48;100.00;101807.97;5070895;28;19928;-83
2021/03/21 01:24:09;;;;;;;;;;;;;;;4.47;100.00;101806.28;5084220;28;19932;-86
2021/03/21 01:26:34;;;;;;;;;;;;;;;4.47;100.00;101796.50;5044730;28;19927;-83
2021/03/21 01:28:59;;;;;;;;;;;;;;;4.50;100.00;101795.44;5050005;28;20300;-84
2021/03/21 01:31:25;;;;;;;;;;;;;;;4.49;100.00;101789.28;5066200;28;19977;-85
2021/03/21 01:33:50;;;;;;;;;;;;;;;4.51;100.00;101790.03;5071269;28;20023;-87
2021/03/21 01:36:23;;;;;;;;;;;;;;;4.50;100.00;101785.66;5071100;28;20428;-83
2021/03/21 01:38:49;;;;;;;;;;;;;;;4.51;100.00;101783.84;5069332;28;19923;-85
2021/03/21 01:41:16;;;;;;;;;;;;;;;4.52;100.00;101772.28;5090400;28;19924;-82
2021/03/21 01:43:41;;;;;;;;;;;;;;;4.51;100.00;101776.72;5076748;28;20018;-85
2021/03/21 01:46:07;;;;;;;;;;;;;;;4.51;100.00;101781.19;5069258;28;20020;-83
2021/03/21 01:48:47;;;;;;;;;;;;;;;4.51;100.00;101771.41;5072347;28;19916;-82
2021/03/21 01:51:30;;;;;;;;;;;;;;;4.52;100.00;101777.59;5049763;28;19952;-85
2021/03/21 01:53:57;;;;;;;;;;;;;;;4.53;100.00;101774.84;5069893;28;19916;-81
2021/03/21 01:56:24;;;;;;;;;;;;;;;4.52;100.00;101766.97;5066344;28;20399;-83
2021/03/21 01:58:55;;;;;;;;;;;;;;;4.53;100.00;101766.84;5069890;28;20376;-83
2021/03/21 02:01:23;;;;;;;;;;;;;;;4.53;100.00;101758.88;5083940;28;19920;-87
2021/03/21 02:03:48;;;;;;;;;;;;;;;4.55;100.00;101764.13;5084124;28;20297;-88
2021/03/21 02:06:23;;;;;;;;;;;;;;;4.53;100.00;101758.03;5067008;28;19924;-83
2021/03/21 02:08:53;;;;;;;;;;;;;;;4.55;100.00;101755.28;5070014;28;19990;-82
2021/03/21 02:11:27;;;;;;;;;;;;;;;4.55;100.00;101749.97;5070111;28;19920;-85
2021/03/21 02:13:59;;;;;;;;;;;;;;;4.52;100.00;101746.56;5082435;28;19920;-85
2021/03/21 02:16:28;;;;;;;;;;;;;;;4.53;100.00;101742.94;5082940;28;19932;-84
2021/03/21 02:19:01;;;;;;;;;;;;;;;4.55;100.00;101744.66;5085957;28;19939;-85
2021/03/21 02:21:35;;;;;;;;;;;;;;;4.56;100.00;101736.56;5082651;28;19931;-82
2021/03/21 02:24:10;;;;;;;;;;;;;;;4.56;100.00;101715.28;5086872;28;19923;-85
2021/03/21 02:26:54;;;;;;;;;;;;;;;4.55;100.00;101713.59;5081658;28;19924;-85
2021/03/21 02:29:29;;;;;;;;;;;;;;;4.55;100.00;101713.59;5068286;28;19916;-85
2021/03/21 02:31:56;;;;;;;;;;;;;;;4.56;100.00;101712.63;5081510;28;19981;-84
2021/03/21 02:34:24;;;;;;;;;;;;;;;4.58;100.00;101717.88;5069220;28;20026;-83
2021/03/21 02:36:53;;;;;;;;;;;;;;;4.58;100.00;101716.06;5070965;28;20356;-82
2021/03/21 02:39:32;;;;;;;;;;;;;;;4.58;100.00;101713.41;5086720;28;19966;-83
2021/03/21 02:42:08;;;;;;;;;;;;;;;4.59;100.00;101717.75;5077112;28;19995;-85
2021/03/21 02:44:38;;;;;;;;;;;;;;;4.59;100.00;101714.25;5086489;28;19924;-84
2021/03/21 02:47:06;;;;;;;;;;;;;;;4.59;100.00;101720.41;5078682;28;20338;-85
2021/03/21 02:49:35;;;;;;;;;;;;;;;4.61;100.00;101712.34;5061044;28;19980;-82
2021/03/21 02:52:03;;;;;;;;;;;;;;;4.62;100.00;101720.19;5054316;28;20404;-87
2021/03/21 02:54:32;;;;;;;;;;;;;;;4.64;100.00;101720.97;5066556;28;19924;-82
2021/03/21 02:57:11;;;;;;;;;;;;;;;4.64;100.00;101712.97;5074297;28;20274;-85
2021/03/21 02:59:39;;;;;;;;;;;;;;;4.67;100.00;101722.56;5078663;28;20270;-86
2021/03/21 03:02:10;;;;;;;;;;;;;;;4.69;100.00;101710.88;5056641;28;19927;-85
2021/03/21 03:04:37;;;;;;;;;;;;;;;4.70;100.00;101712.56;5073652;28;19928;-83
2021/03/21 03:07:06;;;;;;;;;;;;;;;4.69;100.00;101708.22;5066894;28;19920;-86
2021/03/21 03:09:45;;;;;;;;;;;;;;;4.71;100.00;101713.41;5079398;28;19947;-84
2021/03/21 03:12:25;;;;;;;;;;;;;;;4.70;100.00;101706.41;5066953;28;19924;-82
2021/03/21 03:14:50;;;;;;;;;;;;;;;4.67;100.00;101698.63;5062237;28;19920;-83
2021/03/21 03:17:15;;;;;;;;;;;;;;;4.66;100.00;101700.44;5060097;28;20335;-84
2021/03/21 03:20:05;;;;;;;;;;;;;;;4.65;100.00;101704.03;5070469;28;20349;-83
2021/03/21 03:22:33;;;;;;;;;;;;;;;4.65;100.00;101701.38;5067795;28;19920;-82
2021/03/21 03:25:17;;;;;;;;;;;;;;;4.65;100.00;101698.72;5068189;28;19928;-82
2021/03/21 03:28:03;;;;;;;;;;;;;;;4.65;100.00;101705.84;5055446;28;20015;-81
2021/03/21 03:30:39;;;;;;;;;;;;;;;4.65;100.00;101703.19;5038364;28;20308;-86
2021/03/21 03:33:05;;;;;;;;;;;;;;;4.64;100.00;101698.84;5048966;28;19959;-81
2021/03/21 03:35:31;;;;;;;;;;;;;;;4.64;100.00;101691.72;5062689;28;20015;-84
2021/03/21 03:37:56;;;;;;;;;;;;;;;4.64;100.00;101691.72;5073869;28;20016;-86
2021/03/21 03:40:22;;;;;;;;;;;;;;;4.64;100.00;101693.53;5066487;28;19927;-85
2021/03/21 03:43:11;;;;;;;;;;;;;;;4.65;100.00;101688.09;5054232;28;20388;-84
2021/03/21 03:45:36;;;;;;;;;;;;;;;4.65;100.00;101692.56;5066044;28;19928;-84
2021/03/21 03:48:01;;;;;;;;;;;;;;;4.64;100.00;101685.53;5058817;28;20289;-81
2021/03/21 03:50:26;;;;;;;;;;;;;;;4.64;100.00;101673.09;5065740;28;20377;-86
2021/03/21 03:53:10;;;;;;;;;;;;;;;4.65;100.00;101687.25;5059508;28;19959;-85
2021/03/21 03:55:47;;;;;;;;;;;;;;;4.64;100.00;101675.75;5059656;28;20416;-85
2021/03/21 03:58:22;;;;;;;;;;;;;;;4.65;100.00;101685.44;5040521;28;19921;-82
2021/03/21 04:00:53;;;;;;;;;;;;;;;4.65;100.00;101685.44;5055684;28;19924;-83
2021/03/21 04:03:33;;;;;;;;;;;;;;;4.64;100.00;101675.75;5055436;28;19920;-82
2021/03/21 04:06:00;;;;;;;;;;;;;;;4.64;100.00;101686.38;5058545;28;20019;-86
2021/03/21 04:08:49;;;;;;;;;;;;;;;4.63;100.00;101671.41;5056787;28;19928;-81
2021/03/21 04:11:30;;;;;;;;;;;;;;;4.65;100.00;101677.44;5052997;28;20385;-82
2021/03/21 04:14:15;;;;;;;;;;;;;;;4.65;100.00;101671.28;5059868;28;19925;-84
2021/03/21 04:16:50;;;;;;;;;;;;;;;4.65;100.00;101674.78;5061860;28;20297;-83
2021/03/21 04:19:17;;;;;;;;;;;;;;;4.65;100.00;101664.16;5062954;28;20012;-85
2021/03/21 04:21:50;;;;;;;;;;;;;;;4.69;100.00;101671.00;5037244;28;19987;-83
2021/03/21 04:24:19;;;;;;;;;;;;;;;4.70;100.00;101670.03;5088495;28;19927;-84
2021/03/21 04:26:53;;;;;;;;;;;;;;;4.71;100.00;101663.72;5080697;28;19920;-83
2021/03/21 04:29:20;;;;;;;;;;;;;;;4.73;100.00;101674.28;5028753;28;19970;-86
2021/03/21 04:31:47;;;;;;;;;;;;;;;4.72;100.00;101678.75;5049098;28;19970;-82
2021/03/21 04:34:13;;;;;;;;;;;;;;;4.73;100.00;101675.13;5058683;28;20351;-84
2021/03/21 04:36:40;;;;;;;;;;;;;;;4.75;100.00;101678.53;5066750;28;20023;-84
2021/03/21 04:39:05;;;;;;;;;;;;;;;4.74;100.00;101684.78;5082760;28;19928;-81
2021/03/21 04:41:33;;;;;;;;;;;;;;;4.74;100.00;101679.47;5080750;28;19969;-84
2021/03/21 04:44:04;;;;;;;;;;;;;;;4.75;100.00;101683.84;5070958;28;20342;-86
2021/03/21 04:46:32;;;;;;;;;;;;;;;4.77;100.00;101681.06;5091164;28;19916;-85
2021/03/21 04:48:57;;;;;;;;;;;;;;;4.78;100.00;101671.31;5056054;28;19958;-83
2021/03/21 04:51:35;;;;;;;;;;;;;;;4.75;100.00;101662.59;5048757;28;19960;-82
2021/03/21 04:54:04;;;;;;;;;;;;;;;4.78;100.00;101671.31;5051316;28;19962;-85
2021/03/21 04:56:36;;;;;;;;;;;;;;;4.77;100.00;101665.13;5055487;28;19939;-83
2021/03/21 04:59:05;;;;;;;;;;;;;;;4.79;100.00;101662.38;5044981;28;20329;-82
2021/03/21 05:01:42;;;;;;;;;;;;;;;4.78;100.00;101666.84;5054037;28;19935;-85
2021/03/21 05:04:14;;;;;;;;;;;;;;;4.78;100.00;101655.34;5056083;28;19924;-84
2021/03/21 05:06:49;;;;;;;;;;;;;;;4.79;100.00;101657.06;5052684;28;19958;-84
2021/03/21 05:09:17;;;;;;;;;;;;;;;4.81;100.00;101655.16;5079816;28;20311;-85
2021/03/21 05:11:46;;;;;;;;;;;;;;;4.83;100.00;101658.53;5065745;28;20403;-85
2021/03/21 05:14:18;;;;;;;;;;;;;;;4.82;100.00;101646.19;5068857;28;19981;-84
2021/03/21 05:16:47;;;;;;;;;;;;;;;4.83;100.00;101647.91;5059496;28;19933;-83
2021/03/21 05:19:19;;;;;;;;;;;;;;;4.84;100.00;101625.69;5059704;28;19928;-83
2021/03/21 05:21:54;;;;;;;;;;;;;;;4.83;100.00;101632.78;5061550;28;20009;-82
2021/03/21 05:24:34;;;;;;;;;;;;;;;4.84;100.00;101649.63;5055789;28;19928;-82
2021/03/21 05:27:10;;;;;;;;;;;;;;;4.83;100.00;101643.41;5059557;28;19928;-81
2021/03/21 05:29:35;;;;;;;;;;;;;;;4.84;100.00;101641.63;5058057;28;19920;-82
2021/03/21 05:32:00;;;;;;;;;;;;;;;4.86;100.00;101639.69;5057150;28;20433;-84
2021/03/21 05:34:25;;;;;;;;;;;;;;;4.86;100.00;101653.88;5057354;28;19950;-84
2021/03/21 05:37:03;;;;;;;;;;;;;;;4.86;100.00;101653.00;5058249;28;19930;-84
2021/03/21 05:39:33;;;;;;;;;;;;;;;4.87;100.00;101650.25;5069569;28;19920;-84
2021/03/21 05:41:58;;;;;;;;;;;;;;;4.88;100.00;101672.38;5058859;28;19927;-85
2021/03/21 05:44:41;;;;;;;;;;;;;;;4.88;100.00;101670.56;5061559;28;19920;-82
2021/03/21 05:47:25;;;;;;;;;;;;;;;4.88;100.00;101664.38;5051913;28;20746;-85
2021/03/21 05:50:01;;;;;;;;;;;;;;;4.89;100.00;101663.41;5058609;28;19921;-81
2021/03/21 05:52:53;;;;;;;;;;;;;;;4.90;100.00;101667.81;5062575;28;20003;-82
2021/03/21 05:55:41;;;;;;;;;;;;;;;4.90;100.00;101665.16;5038117;28;19920;-80
2021/03/21 05:58:22;;;;;;;;;;;;;;;4.89;100.00;101658.09;5038405;28;20023;-83
2021/03/21 06:00:59;;;;;;;;;;;;;;;4.89;100.00;101658.09;5065679;28;20395;-82
2021/03/21 06:03:33;;;;;;;;;;;;;;;4.87;100.00;101666.22;5071119;28;19923;-86
2021/03/21 06:06:05;;;;;;;;;;;;;;;4.88;100.00;101664.38;5088361;28;19919;-86
2021/03/21 06:08:49;;;;;;;;;;;;;;;4.89;100.00;101660.75;5071840;28;19939;-83
2021/03/21 06:11:23;;;;;;;;;;;;;;;4.89;100.00;101653.66;5080489;28;20368;-85
2021/03/21 06:14:07;;;;;;;;;;;;;;;4.90;100.00;101659.81;5072419;28;20372;-82
2021/03/21 06:16:51;;;;;;;;;;;;;;;4.89;100.00;101669.63;5039460;28;19928;-83
2021/03/21 06:19:34;;;;;;;;;;;;;;;4.90;100.00;101660.66;5087940;28;20007;-84
2021/03/21 06:22:09;;;;;;;;;;;;;;;4.91;100.00;101677.47;5087133;28;20015;-85
2021/03/21 06:24:37;;;;;;;;;;;;;;;4.90;100.00;101675.78;5080786;28;19942;-80
2021/03/21 06:27:32;;;;;;;;;;;;;;;4.91;100.00;101680.97;5078509;28;19947;-83
2021/03/21 06:29:57;;;;;;;;;;;;;;;4.91;100.00;101686.28;5040126;28;19927;-82
2021/03/21 06:32:41;;;;;;;;;;;;;;;4.92;100.00;101685.38;5066176;28;19916;-81
2021/03/21 06:35:06;;;;;;;;;;;;;;;4.92;100.00;101689.81;5071278;28;19927;-85
2021/03/21 06:37:50;;;;;;;;;;;;;;;4.91;100.00;101691.63;5079031;28;19920;-82
2021/03/21 06:40:34;;;;;;;;;;;;;;;4.94;100.00;101695.88;5081048;28;19920;-82
2021/03/21 06:43:12;;;;;;;;;;;;;;;4.95;100.00;101701.09;5082598;28;20071;-86
2021/03/21 06:45:49;;;;;;;;;;;;;;;4.92;100.00;101698.66;5083703;28;20285;-86
2021/03/21 06:48:25;;;;;;;;;;;;;;;4.91;100.00;101688.97;5065106;28;20367;-85
2021/03/21 06:51:23;;;;;;;;;;;;;;;4.93;100.00;101699.50;5082617;28;19927;-84
2021/03/21 06:53:55;;;;;;;;;;;;;;;4.93;100.00;101707.50;5017728;28;19917;-86
2021/03/21 06:56:26;;;;;;;;;;;;;;;4.92;100.00;101700.44;5077512;28;19995;-84
2021/03/21 06:59:07;;;;;;;;;;;;;;;4.92;100.00;101697.78;5084960;28;19973;-81
2021/03/21 07:01:40;;;;;;;;;;;;;;;4.92;100.00;101692.47;5061034;28;20578;-81
2021/03/21 07:04:17;;;;;;;;;;;;;;;4.93;100.00;101707.50;5053471;28;19920;-84
2021/03/21 07:06:55;;;;;;;;;;;;;;;4.94;100.00;101702.03;5067471;28;20008;-86
2021/03/21 07:09:48;;;;;;;;;;;;;;;4.97;100.00;101708.97;5025590;28;20365;-84
2021/03/21 07:12:30;;;;;;;;;;;;;;;4.98;100.00;101706.22;5039147;28;19978;-83
2021/03/21 07:15:21;;;;;;;;;;;;;;;4.98;100.00;101737.28;5065014;28;19928;-82
2021/03/21 07:18:02;;;;;;;;;;;;;;;5.00;100.00;101743.34;5033592;28;20492;-85
2021/03/21 07:20:36;;;;;;;;;;;;;;;4.98;100.00;101742.63;5052816;28;19920;-83
2021/03/21 07:23:07;;;;;;;;;;;;;;;5.00;100.00;101751.31;5072873;28;19931;-87
2021/03/21 07:25:52;;;;;;;;;;;;;;;5.04;100.00;101751.97;5067314;28;20274;-82
2021/03/21 07:28:20;;;;;;;;;;;;;;;5.05;100.00;101743.88;5063859;28;19928;-83
2021/03/21 07:31:04;;;;;;;;;;;;;;;5.06;100.00;101729.59;5074833;28;19927;-83
2021/03/21 07:33:48;;;;;;;;;;;;;;;5.10;100.00;101722.28;5067874;28;19920;-83
2021/03/21 07:36:22;;;;;;;;;;;;;;;5.11;100.00;101730.16;5060754;28;20031;-85
2021/03/21 07:38:53;;;;;;;;;;;;;;;5.14;99.84;101726.44;5066964;28;19920;-82
2021/03/21 07:41:30;;;;;;;;;;;;;;;5.16;99.64;101725.38;5081556;28;19953;-85
2021/03/21 07:44:02;;;;;;;;;;;;;;;5.17;98.65;101723.56;5068328;28;19927;-84
2021/03/21 07:46:27;;;;;;;;;;;;;;;5.20;98.81;101721.53;5085679;28;20425;-84
2021/03/21 07:49:12;;;;;;;;;;;;;;;5.22;98.84;101723.25;5087980;28;19928;-85
2021/03/21 07:51:52;;;;;;;;;;;;;;;5.22;97.85;101728.56;5102213;28;20532;-85
2021/03/21 07:54:30;;;;;;;;;;;;;;;5.26;98.66;101730.03;5046789;28;20371;-81
2021/03/21 07:57:00;;;;;;;;;;;;;;;5.26;98.14;101735.38;5088788;28;19924;-83
2021/03/21 07:59:26;;;;;;;;;;;;;;;5.27;97.73;101739.75;5072748;28;19928;-85
2021/03/21 08:01:52;;;;;;;;;;;;;;;5.28;98.44;101728.13;5072861;28;19959;-85
2021/03/21 08:04:23;;;;;;;;;;;;;;;5.30;97.61;101731.56;5068037;28;19966;-85
2021/03/21 08:06:54;;;;;;;;;;;;;;;5.32;97.81;101727.84;5072119;28;20003;-82
2021/03/21 08:09:21;;;;;;;;;;;;;;;5.33;96.60;101737.50;5070838;28;19920;-83
2021/03/21 08:11:48;;;;;;;;;;;;;;;5.36;96.90;101742.63;5084228;28;20364;-84
2021/03/21 08:14:22;;;;;;;;;;;;;;;5.40;95.74;101745.91;5088527;28;19935;-82
2021/03/21 08:16:50;;;;;;;;;;;;;;;5.46;95.95;101753.44;5091887;28;19959;-85
2021/03/21 08:19:20;;;;;;;;;;;;;;;5.48;96.36;101751.53;5087032;28;19965;-83
2021/03/21 08:21:47;;;;;;;;;;;;;;;5.50;95.72;101757.63;5089192;28;19916;-84
2021/03/21 08:24:32;;;;;;;;;;;;;;;5.49;94.79;101757.72;5082501;28;19927;-85
2021/03/21 08:26:59;;;;;;;;;;;;;;;5.48;95.87;101767.53;5087484;28;20300;-85
2021/03/21 08:29:26;;;;;;;;;;;;;;;5.47;95.52;101756.97;5088096;28;19920;-82
2021/03/21 08:32:00;;;;;;;;;;;;;;;5.48;95.25;101762.19;5087054;28;19920;-84
2021/03/21 08:34:37;;;;;;;;;;;;;;;5.48;93.99;101761.34;5067419;28;19916;-85
2021/03/21 08:37:12;;;;;;;;;;;;;;;5.46;92.41;101764.09;5067613;28;20305;-82
2021/03/21 08:39:42;;;;;;;;;;;;;;;5.45;91.06;101772.22;5079321;28;19939;-84
2021/03/21 08:42:20;;;;;;;;;;;;;;;5.40;90.41;101760.06;5063315;28;19919;-84
2021/03/21 08:44:47;;;;;;;;;;;;;;;5.42;90.17;101762.63;5079674;28;19924;-82
2021/03/21 08:47:17;;;;;;;;;;;;;;;5.47;89.57;101765.81;5059031;28;19926;-83
2021/03/21 08:49:45;;;;;;;;;;;;;;;5.49;88.37;101769.22;5062955;28;19928;-85
2021/03/21 08:52:25;;;;;;;;;;;;;;;5.52;88.73;101763.66;5076042;28;20011;-82
2021/03/21 08:54:52;;;;;;;;;;;;;;;5.54;87.92;101774.22;5066069;28;19920;-84
2021/03/21 08:57:29;;;;;;;;;;;;;;;5.57;87.26;101782.00;5065974;28;20003;-82
2021/03/21 09:00:11;;;;;;;;;;;;;;;5.57;87.61;101782.84;5086210;28;19970;-83
2021/03/21 09:02:38;;;;;;;;;;;;;;;5.60;87.84;101784.44;5083282;28;19920;-83
2021/03/21 09:05:08;;;;;;;;;;;;;;;5.63;87.73;101787.72;5054177;28;19916;-85
2021/03/21 09:07:35;;;;;;;;;;;;;;;5.65;86.11;101777.00;5071294;28;19921;-85
2021/03/21 09:10:21;;;;;;;;;;;;;;;5.67;85.95;101793.72;5087445;28;19977;-85
2021/03/21 09:12:48;;;;;;;;;;;;;;;5.69;84.96;101785.59;5053817;28;19919;-84
2021/03/21 09:15:16;;;;;;;;;;;;;;;5.71;85.50;101783.69;5066088;28;19917;-82
2021/03/21 09:17:42;;;;;;;;;;;;;;;5.73;85.76;101795.09;5070133;28;20297;-83
2021/03/21 09:20:14;;;;;;;;;;;;;;;5.74;85.23;101802.13;5078521;28;19977;-83
2021/03/21 09:22:42;;;;;;;;;;;;;;;5.75;84.74;101790.50;5068712;28;19963;-83
2021/03/21 09:25:12;;;;;;;;;;;;;;;5.77;84.88;101793.91;5074504;28;19978;-82
2021/03/21 09:27:40;;;;;;;;;;;;;;;5.76;85.23;101794.88;5083716;28;19928;-85
2021/03/21 09:30:19;;;;;;;;;;;;;;;5.75;85.11;101795.81;5084465;28;19920;-82
2021/03/21 09:32:44;;;;;;;;;;;;;;;5.76;85.62;101797.53;5078956;28;19943;-84
2021/03/21 09:35:10;;;;;;;;;;;;;;;5.78;85.26;101792.94;5085712;28;20478;-84
2021/03/21 09:37:36;;;;;;;;;;;;;;;5.80;85.72;101796.34;5062083;28;19929;-85
2021/03/21 09:40:01;;;;;;;;;;;;;;;5.85;86.41;101780.91;5048982;28;19920;-86
2021/03/21 09:42:27;;;;;;;;;;;;;;;5.88;86.08;101780.69;5084314;28;19989;-83
2021/03/21 09:44:52;;;;;;;;;;;;;;;5.94;86.44;101790.94;5080447;28;19921;-84
2021/03/21 09:47:20;;;;;;;;;;;;;;;6.01;86.48;101775.34;5077035;28;19952;-85
2021/03/21 09:50:01;;;;;;;;;;;;;;;6.06;85.60;101783.88;5066779;28;19928;-82
2021/03/21 09:52:45;;;;;;;;;;;;;;;6.06;84.53;101792.72;5033625;28;19924;-83
2021/03/21 09:55:18;;;;;;;;;;;;;;;6.06;83.13;101790.03;5076003;28;19979;-83
2021/03/21 09:58:10;;;;;;;;;;;;;;;6.08;83.39;101793.47;5061880;28;19935;-85
2021/03/21 10:00:37;;;;;;;;;;;;;;;6.14;81.18;101801.97;5056461;28;19920;-85
2021/03/21 10:03:02;;;;;;;;;;;;;;;6.16;81.04;101808.03;5076111;28;19972;-84
2021/03/21 10:05:46;;;;;;;;;;;;;;;6.23;81.29;101811.97;5075349;28;20319;-85
2021/03/21 10:08:21;;;;;;;;;;;;;;;6.24;80.15;101819.00;5061317;28;20349;-84
2021/03/21 10:10:55;;;;;;;;;;;;;;;6.27;80.46;101818.75;5066111;28;20003;-83
2021/03/21 10:13:29;;;;;;;;;;;;;;;6.33;79.66;101803.19;5062283;28;19920;-85
2021/03/21 10:16:12;;;;;;;;;;;;;;;6.38;80.41;101810.84;5089215;28;19931;-85
2021/03/21 10:18:42;;;;;;;;;;;;;;;6.46;79.80;101810.28;5062502;28;20304;-83
2021/03/21 10:21:08;;;;;;;;;;;;;;;6.48;79.26;101806.53;5081175;28;19932;-86
2021/03/21 10:23:49;;;;;;;;;;;;;;;6.51;79.51;101824.13;5067668;28;19931;-83
2021/03/21 10:26:15;;;;;;;;;;;;;;;6.58;79.88;101827.19;5073795;28;19937;-82
2021/03/21 10:29:01;;;;;;;;;;;;;;;6.51;78.59;101833.00;5070395;28;20509;-83
2021/03/21 10:31:34;;;;;;;;;;;;;;;6.53;78.45;101835.53;5043466;28;20297;-85
2021/03/21 10:34:02;;;;;;;;;;;;;;;6.51;77.45;101841.00;5077937;28;19924;-83
2021/03/21 10:36:40;;;;;;;;;;;;;;;6.55;78.25;101829.13;5068394;28;19928;-86
2021/03/21 10:39:12;;;;;;;;;;;;;;;6.53;77.32;101855.06;5068254;28;22397;-85
2021/03/21 10:41:58;;;;;;;;;;;;;;;6.53;77.50;101846.19;5064946;28;19920;-83
2021/03/21 10:44:32;;;;;;;;;;;;;;;6.57;77.43;101830.84;5078993;28;19920;-87
2021/03/21 10:47:04;;;;;;;;;;;;;;;6.59;77.51;101829.75;5058698;28;19985;-83
2021/03/21 10:49:48;;;;;;;;;;;;;;;6.63;77.57;101823.22;5073002;28;19924;-86
2021/03/21 10:52:14;;;;;;;;;;;;;;;6.69;77.20;101811.25;5062360;28;19922;-86
2021/03/21 10:54:39;;;;;;;;;;;;;;;6.75;76.86;101829.47;5079138;28;19949;-83
2021/03/21 10:57:23;;;;;;;;;;;;;;;6.78;76.29;101831.91;5081223;28;19924;-84
2021/03/21 11:00:09;;;;;;;;;;;;;;;6.83;77.08;101829.75;5066766;28;19984;-85
2021/03/21 11:02:35;;;;;;;;;;;;;;;6.92;77.21;101823.72;5063635;28;20304;-83
2021/03/21 11:05:02;;;;;;;;;;;;;;;6.93;74.45;101822.78;5062728;28;19920;-83
2021/03/21 11:07:28;;;;;;;;;;;;;;;7.04;74.32;101823.75;5049416;28;19947;-84
2021/03/21 11:09:55;;;;;;;;;;;;;;;7.10;74.34;101808.13;5087416;28;20360;-84
2021/03/21 11:12:28;;;;;;;;;;;;;;;7.11;73.76;101814.34;5074595;28;19920;-83
2021/03/21 11:14:53;;;;;;;;;;;;;;;7.21;75.08;101810.81;5060430;28;20408;-83
2021/03/21 11:17:21;;;;;;;;;;;;;;;7.21;75.13;101820.66;5065362;28;20007;-83
2021/03/21 11:19:49;;;;;;;;;;;;;;;7.12;73.41;101814.22;5060518;28;19920;-83
2021/03/21 11:22:31;;;;;;;;;;;;;;;7.06;74.57;101816.50;5051591;28;20023;-84
2021/03/21 11:24:57;;;;;;;;;;;;;;;7.07;75.20;101820.84;5073687;28;19928;-85
2021/03/21 11:27:48;;;;;;;;;;;;;;;7.09;74.24;101824.28;5073524;28;20296;-85
2021/03/21 11:30:17;;;;;;;;;;;;;;;7.15;73.09;101819.31;5066968;28;19989;-84
2021/03/21 11:32:42;;;;;;;;;;;;;;;7.21;72.44;101812.66;5063239;28;19981;-85
2021/03/21 11:35:28;;;;;;;;;;;;;;;7.13;72.30;101821.22;5063216;28;20279;-84
2021/03/21 11:37:55;;;;;;;;;;;;;;;7.10;72.39;101824.13;5075528;28;19936;-84
2021/03/21 11:40:24;;;;;;;;;;;;;;;7.06;71.61;101817.34;5077991;28;19920;-86
2021/03/21 11:43:03;;;;;;;;;;;;;;;7.07;72.03;101818.19;5073241;28;19931;-84
2021/03/21 11:45:31;;;;;;;;;;;;;;;7.08;74.05;101830.56;5045259;28;19931;-85
2021/03/21 11:48:08;;;;;;;;;;;;;;;7.06;74.02;101828.03;5065136;28;19931;-85
2021/03/21 11:50:35;;;;;;;;;;;;;;;7.07;73.92;101828.88;5071366;28;20269;-85
2021/03/21 11:53:02;;;;;;;;;;;;;;;7.13;74.20;101823.91;5089903;28;19977;-83
2021/03/21 11:55:30;;;;;;;;;;;;;;;7.17;73.77;101819.19;5065452;28;19924;-85
2021/03/21 11:58:00;;;;;;;;;;;;;;;7.18;73.67;101827.09;5062362;28;20399;-87
2021/03/21 12:00:34;;;;;;;;;;;;;;;7.16;74.66;101821.03;5065274;28;19920;-82
2021/03/21 12:03:05;;;;;;;;;;;;;;;7.14;74.46;101822.97;5081193;28;19942;-84
2021/03/21 12:05:34;;;;;;;;;;;;;;;7.15;74.99;101821.13;5080422;28;19924;-86
2021/03/21 12:08:09;;;;;;;;;;;;;;;7.13;74.59;101823.06;5065762;28;19935;-85
2021/03/21 12:10:37;;;;;;;;;;;;;;;7.03;72.42;101820.25;5096052;28;19955;-85
2021/03/21 12:13:21;;;;;;;;;;;;;;;7.07;74.65;101827.03;5067067;28;20358;-84
2021/03/21 12:15:46;;;;;;;;;;;;;;;7.10;74.77;101823.28;5077565;28;19931;-84
2021/03/21 12:18:19;;;;;;;;;;;;;;;7.10;74.58;101812.63;5079037;28;19936;-84
2021/03/21 12:20:46;;;;;;;;;;;;;;;7.08;74.58;101817.22;5077899;28;19924;-86
2021/03/21 12:23:47;;;;;;;;;;;;;;;7.07;74.27;101807.50;5068779;28;20261;-85
2021/03/21 12:26:15;;;;;;;;;;;;;;;7.11;74.59;101803.66;5012168;28;19921;-85
2021/03/21 12:28:53;;;;;;;;;;;;;;;7.21;75.44;101793.97;5071203;28;19931;-82
2021/03/21 12:31:21;;;;;;;;;;;;;;;7.17;73.92;101804.03;5073992;28;19998;-85
2021/03/21 12:33:47;;;;;;;;;;;;;;;7.16;75.37;101793.47;5083572;28;19931;-83
2021/03/21 12:36:14;;;;;;;;;;;;;;;7.14;75.22;101792.75;5071968;28;19932;-85
2021/03/21 12:38:44;;;;;;;;;;;;;;;7.13;74.71;101785.69;5091616;28;20004;-85
2021/03/21 12:41:21;;;;;;;;;;;;;;;7.18;76.40;101792.38;5080879;28;19924;-84
2021/03/21 12:44:06;;;;;;;;;;;;;;;7.20;74.49;101792.28;5076852;28;19924;-83
2021/03/21 12:46:40;;;;;;;;;;;;;;;7.18;76.18;101787.03;5065697;28;20384;-86
2021/03/21 12:49:11;;;;;;;;;;;;;;;7.16;75.43;101785.44;5076521;28;20014;-84
2021/03/21 12:51:36;;;;;;;;;;;;;;;7.17;74.38;101779.16;5063458;28;19959;-86
2021/03/21 12:54:03;;;;;;;;;;;;;;;7.26;74.98;101786.47;5056230;28;19966;-86
2021/03/21 12:56:28;;;;;;;;;;;;;;;7.32;73.56;101780.63;5058772;28;20265;-85
2021/03/21 12:58:54;;;;;;;;;;;;;;;7.39;73.94;101779.22;5075414;28;19928;-84
2021/03/21 13:01:22;;;;;;;;;;;;;;;7.61;73.99;101767.66;5079508;28;20373;-85
2021/03/21 13:03:48;;;;;;;;;;;;;;;7.71;73.84;101770.47;5056974;28;19924;-86
2021/03/21 13:06:13;;;;;;;;;;;;;;;7.63;72.36;101757.72;5079296;28;19926;-84